sensor_id;sensor_type;location;lat;lon;timestamp;P1;durP1;ratioP1;P2;durP2;ratioP2
70410;SDS011;57832;46.038;11.398;2023-04-15T00:00:27;0.10;;;0.10;;
70410;SDS011;57832;46.038;11.398;2023-04-15T00:02:53;0.00;;;0.00;;
70410;SDS011;57832;46.038;11.398;2023-04-15T00:05:19;0.00;;;0.00;;
70410;SDS011;57832;46.038;11.398;2023-04-15T00:07:45;0.00;;;0.00;;
70410;SDS011;57832;46.038;11.398;2023-04-15T00:10:11;0.00;;;0.00;;
70410;SDS011;57832;46.038;11.398;2023-04-15T00:12:37;0.00;;;0.00;;
70410;SDS011;57832;46.038;11.398;2023-04-15T00:15:03;0.00;;;0.00;;
70410;SDS011;57832;46.038;11.398;2023-04-15T00:17:29;0.00;;;0.00;;
70410;SDS011;57832;46.038;11.398;2023-04-15T00:19:55;0.00;;;0.00;;
70410;SDS011;57832;46.038;11.398;2023-04-15T00:22:20;0.00;;;0.00;;
70410;SDS011;57832;46.038;11.398;2023-04-15T00:24:46;0.00;;;0.00;;
70410;SDS011;57832;46.038;11.398;2023-04-15T00:27:12;0.00;;;0.00;;
70410;SDS011;57832;46.038;11.398;2023-04-15T00:29:37;0.00;;;0.00;;
70410;SDS011;57832;46.038;11.398;2023-04-15T00:32:03;0.00;;;0.00;;
70410;SDS011;57832;46.038;11.398;2023-04-15T00:34:28;0.00;;;0.00;;
70410;SDS011;57832;46.038;11.398;2023-04-15T00:36:54;0.00;;;0.00;;
70410;SDS011;57832;46.038;11.398;2023-04-15T00:39:19;0.00;;;0.00;;
70410;SDS011;57832;46.038;11.398;2023-04-15T00:44:12;0.00;;;0.00;;
70410;SDS011;57832;46.038;11.398;2023-04-15T00:46:38;0.00;;;0.00;;
70410;SDS011;57832;46.038;11.398;2023-04-15T00:49:04;0.00;;;0.00;;
70410;SDS011;57832;46.038;11.398;2023-04-15T00:51:31;0.00;;;0.00;;
70410;SDS011;57832;46.038;11.398;2023-04-15T00:54:04;0.03;;;0.03;;
70410;SDS011;57832;46.038;11.398;2023-04-15T00:56:31;0.00;;;0.00;;
70410;SDS011;57832;46.038;11.398;2023-04-15T00:59:00;0.00;;;0.00;;
70410;SDS011;57832;46.038;11.398;2023-04-15T01:01:26;0.00;;;0.00;;
70410;SDS011;57832;46.038;11.398;2023-04-15T01:03:53;0.05;;;0.05;;
70410;SDS011;57832;46.038;11.398;2023-04-15T01:06:20;0.00;;;0.00;;
70410;SDS011;57832;46.038;11.398;2023-04-15T01:08:46;0.00;;;0.00;;
70410;SDS011;57832;46.038;11.398;2023-04-15T01:11:11;0.00;;;0.00;;
70410;SDS011;57832;46.038;11.398;2023-04-15T01:13:37;0.00;;;0.00;;
70410;SDS011;57832;46.038;11.398;2023-04-15T01:16:04;0.00;;;0.00;;
70410;SDS011;57832;46.038;11.398;2023-04-15T01:18:30;0.00;;;0.00;;
70410;SDS011;57832;46.038;11.398;2023-04-15T01:20:56;0.10;;;0.10;;
70410;SDS011;57832;46.038;11.398;2023-04-15T01:23:22;0.00;;;0.00;;
70410;SDS011;57832;46.038;11.398;2023-04-15T01:25:48;0.00;;;0.00;;
70410;SDS011;57832;46.038;11.398;2023-04-15T01:28:14;0.00;;;0.00;;
70410;SDS011;57832;46.038;11.398;2023-04-15T01:30:40;0.00;;;0.00;;
70410;SDS011;57832;46.038;11.398;2023-04-15T01:33:05;0.00;;;0.00;;
70410;SDS011;57832;46.038;11.398;2023-04-15T01:35:31;0.00;;;0.00;;
70410;SDS011;57832;46.038;11.398;2023-04-15T01:37:59;0.00;;;0.00;;
70410;SDS011;57832;46.038;11.398;2023-04-15T01:40:32;0.00;;;0.00;;
70410;SDS011;57832;46.038;11.398;2023-04-15T01:42:58;0.00;;;0.00;;
70410;SDS011;57832;46.038;11.398;2023-04-15T01:45:24;0.10;;;0.10;;
70410;SDS011;57832;46.038;11.398;2023-04-15T01:47:49;0.00;;;0.00;;
70410;SDS011;57832;46.038;11.398;2023-04-15T01:50:15;0.10;;;0.10;;
70410;SDS011;57832;46.038;11.398;2023-04-15T01:52:41;0.00;;;0.00;;
70410;SDS011;57832;46.038;11.398;2023-04-15T01:55:06;0.00;;;0.00;;
70410;SDS011;57832;46.038;11.398;2023-04-15T01:57:33;0.00;;;0.00;;
70410;SDS011;57832;46.038;11.398;2023-04-15T01:59:58;0.00;;;0.00;;
70410;SDS011;57832;46.038;11.398;2023-04-15T02:02:24;0.00;;;0.00;;
70410;SDS011;57832;46.038;11.398;2023-04-15T02:04:49;0.00;;;0.00;;
70410;SDS011;57832;46.038;11.398;2023-04-15T02:07:15;0.00;;;0.00;;
70410;SDS011;57832;46.038;11.398;2023-04-15T02:09:41;0.10;;;0.10;;
70410;SDS011;57832;46.038;11.398;2023-04-15T02:12:08;0.00;;;0.00;;
70410;SDS011;57832;46.038;11.398;2023-04-15T02:14:33;0.10;;;0.10;;
70410;SDS011;57832;46.038;11.398;2023-04-15T02:16:59;0.10;;;0.10;;
70410;SDS011;57832;46.038;11.398;2023-04-15T02:19:31;0.10;;;0.10;;
70410;SDS011;57832;46.038;11.398;2023-04-15T02:21:59;0.00;;;0.00;;
70410;SDS011;57832;46.038;11.398;2023-04-15T02:24:26;0.00;;;0.00;;
70410;SDS011;57832;46.038;11.398;2023-04-15T02:26:53;0.10;;;0.10;;
70410;SDS011;57832;46.038;11.398;2023-04-15T02:29:18;0.05;;;0.05;;
70410;SDS011;57832;46.038;11.398;2023-04-15T02:31:44;0.00;;;0.00;;
70410;SDS011;57832;46.038;11.398;2023-04-15T02:34:09;0.00;;;0.00;;
70410;SDS011;57832;46.038;11.398;2023-04-15T02:36:35;0.10;;;0.10;;
70410;SDS011;57832;46.038;11.398;2023-04-15T02:39:01;0.10;;;0.10;;
70410;SDS011;57832;46.038;11.398;2023-04-15T02:41:28;0.10;;;0.10;;
70410;SDS011;57832;46.038;11.398;2023-04-15T02:43:54;0.10;;;0.10;;
70410;SDS011;57832;46.038;11.398;2023-04-15T02:46:20;0.10;;;0.10;;
70410;SDS011;57832;46.038;11.398;2023-04-15T02:48:47;0.00;;;0.00;;
70410;SDS011;57832;46.038;11.398;2023-04-15T02:51:13;0.10;;;0.10;;
70410;SDS011;57832;46.038;11.398;2023-04-15T02:53:40;0.00;;;0.00;;
70410;SDS011;57832;46.038;11.398;2023-04-15T02:56:06;0.10;;;0.10;;
70410;SDS011;57832;46.038;11.398;2023-04-15T02:58:32;0.00;;;0.00;;
70410;SDS011;57832;46.038;11.398;2023-04-15T03:00:59;0.00;;;0.00;;
70410;SDS011;57832;46.038;11.398;2023-04-15T03:03:24;0.10;;;0.10;;
70410;SDS011;57832;46.038;11.398;2023-04-15T03:05:52;0.00;;;0.00;;
70410;SDS011;57832;46.038;11.398;2023-04-15T03:08:17;0.00;;;0.00;;
70410;SDS011;57832;46.038;11.398;2023-04-15T03:10:43;0.00;;;0.00;;
70410;SDS011;57832;46.038;11.398;2023-04-15T03:13:08;0.00;;;0.00;;
70410;SDS011;57832;46.038;11.398;2023-04-15T03:15:34;0.00;;;0.00;;
70410;SDS011;57832;46.038;11.398;2023-04-15T03:18:00;0.00;;;0.00;;
70410;SDS011;57832;46.038;11.398;2023-04-15T03:20:25;0.00;;;0.00;;
70410;SDS011;57832;46.038;11.398;2023-04-15T03:22:51;0.00;;;0.00;;
70410;SDS011;57832;46.038;11.398;2023-04-15T03:25:17;0.10;;;0.10;;
70410;SDS011;57832;46.038;11.398;2023-04-15T03:27:42;0.00;;;0.00;;
70410;SDS011;57832;46.038;11.398;2023-04-15T03:30:08;0.00;;;0.00;;
70410;SDS011;57832;46.038;11.398;2023-04-15T03:32:34;0.10;;;0.10;;
70410;SDS011;57832;46.038;11.398;2023-04-15T03:34:59;0.05;;;0.05;;
70410;SDS011;57832;46.038;11.398;2023-04-15T03:37:25;0.00;;;0.00;;
70410;SDS011;57832;46.038;11.398;2023-04-15T03:39:51;0.10;;;0.10;;
70410;SDS011;57832;46.038;11.398;2023-04-15T03:42:16;0.10;;;0.10;;
70410;SDS011;57832;46.038;11.398;2023-04-15T03:44:42;0.10;;;0.10;;
70410;SDS011;57832;46.038;11.398;2023-04-15T03:47:07;0.00;;;0.00;;
70410;SDS011;57832;46.038;11.398;2023-04-15T03:49:33;0.00;;;0.00;;
70410;SDS011;57832;46.038;11.398;2023-04-15T03:51:58;0.00;;;0.00;;
70410;SDS011;57832;46.038;11.398;2023-04-15T03:54:24;0.00;;;0.00;;
70410;SDS011;57832;46.038;11.398;2023-04-15T03:56:49;0.00;;;0.00;;
70410;SDS011;57832;46.038;11.398;2023-04-15T03:59:15;0.10;;;0.10;;
70410;SDS011;57832;46.038;11.398;2023-04-15T04:01:40;0.00;;;0.00;;
70410;SDS011;57832;46.038;11.398;2023-04-15T04:04:06;0.00;;;0.00;;
70410;SDS011;57832;46.038;11.398;2023-04-15T04:06:32;0.00;;;0.00;;
70410;SDS011;57832;46.038;11.398;2023-04-15T04:08:57;0.00;;;0.00;;
70410;SDS011;57832;46.038;11.398;2023-04-15T04:11:23;0.00;;;0.00;;
70410;SDS011;57832;46.038;11.398;2023-04-15T04:13:48;0.10;;;0.10;;
70410;SDS011;57832;46.038;11.398;2023-04-15T04:16:14;0.10;;;0.10;;
70410;SDS011;57832;46.038;11.398;2023-04-15T04:18:39;0.00;;;0.00;;
70410;SDS011;57832;46.038;11.398;2023-04-15T04:21:05;0.00;;;0.00;;
70410;SDS011;57832;46.038;11.398;2023-04-15T04:23:30;0.00;;;0.00;;
70410;SDS011;57832;46.038;11.398;2023-04-15T04:25:57;0.00;;;0.00;;
70410;SDS011;57832;46.038;11.398;2023-04-15T04:28:22;0.10;;;0.10;;
70410;SDS011;57832;46.038;11.398;2023-04-15T04:30:48;0.00;;;0.00;;
70410;SDS011;57832;46.038;11.398;2023-04-15T04:33:13;0.00;;;0.00;;
70410;SDS011;57832;46.038;11.398;2023-04-15T04:35:39;0.00;;;0.00;;
70410;SDS011;57832;46.038;11.398;2023-04-15T04:38:04;0.00;;;0.00;;
70410;SDS011;57832;46.038;11.398;2023-04-15T04:40:30;0.00;;;0.00;;
70410;SDS011;57832;46.038;11.398;2023-04-15T04:42:55;0.00;;;0.00;;
70410;SDS011;57832;46.038;11.398;2023-04-15T04:45:21;0.00;;;0.00;;
70410;SDS011;57832;46.038;11.398;2023-04-15T04:47:47;0.00;;;0.00;;
70410;SDS011;57832;46.038;11.398;2023-04-15T04:50:13;0.00;;;0.00;;
70410;SDS011;57832;46.038;11.398;2023-04-15T04:52:38;0.00;;;0.00;;
70410;SDS011;57832;46.038;11.398;2023-04-15T04:55:04;0.03;;;0.03;;
70410;SDS011;57832;46.038;11.398;2023-04-15T04:57:30;0.00;;;0.00;;
70410;SDS011;57832;46.038;11.398;2023-04-15T04:59:55;0.00;;;0.00;;
70410;SDS011;57832;46.038;11.398;2023-04-15T05:02:21;0.10;;;0.10;;
70410;SDS011;57832;46.038;11.398;2023-04-15T05:04:47;0.05;;;0.05;;
70410;SDS011;57832;46.038;11.398;2023-04-15T05:07:14;0.10;;;0.10;;
70410;SDS011;57832;46.038;11.398;2023-04-15T05:09:39;0.00;;;0.00;;
70410;SDS011;57832;46.038;11.398;2023-04-15T05:12:06;0.00;;;0.00;;
70410;SDS011;57832;46.038;11.398;2023-04-15T05:14:33;0.03;;;0.03;;
70410;SDS011;57832;46.038;11.398;2023-04-15T05:16:58;0.00;;;0.00;;
70410;SDS011;57832;46.038;11.398;2023-04-15T05:19:24;0.00;;;0.00;;
70410;SDS011;57832;46.038;11.398;2023-04-15T05:21:49;0.00;;;0.00;;
70410;SDS011;57832;46.038;11.398;2023-04-15T05:24:15;0.10;;;0.10;;
70410;SDS011;57832;46.038;11.398;2023-04-15T05:26:40;0.00;;;0.00;;
70410;SDS011;57832;46.038;11.398;2023-04-15T05:29:06;0.00;;;0.00;;
70410;SDS011;57832;46.038;11.398;2023-04-15T05:31:32;0.00;;;0.00;;
70410;SDS011;57832;46.038;11.398;2023-04-15T05:33:57;0.00;;;0.00;;
70410;SDS011;57832;46.038;11.398;2023-04-15T05:36:23;0.00;;;0.00;;
70410;SDS011;57832;46.038;11.398;2023-04-15T05:38:48;0.00;;;0.00;;
70410;SDS011;57832;46.038;11.398;2023-04-15T05:41:14;0.10;;;0.10;;
70410;SDS011;57832;46.038;11.398;2023-04-15T05:43:40;0.10;;;0.10;;
70410;SDS011;57832;46.038;11.398;2023-04-15T05:46:06;0.00;;;0.00;;
70410;SDS011;57832;46.038;11.398;2023-04-15T05:48:32;0.00;;;0.00;;
70410;SDS011;57832;46.038;11.398;2023-04-15T05:50:58;0.00;;;0.00;;
70410;SDS011;57832;46.038;11.398;2023-04-15T05:53:24;0.10;;;0.10;;
70410;SDS011;57832;46.038;11.398;2023-04-15T05:55:50;0.08;;;0.08;;
70410;SDS011;57832;46.038;11.398;2023-04-15T05:58:15;0.10;;;0.10;;
70410;SDS011;57832;46.038;11.398;2023-04-15T06:00:41;0.00;;;0.00;;
70410;SDS011;57832;46.038;11.398;2023-04-15T06:03:06;0.00;;;0.00;;
70410;SDS011;57832;46.038;11.398;2023-04-15T06:05:32;0.00;;;0.00;;
70410;SDS011;57832;46.038;11.398;2023-04-15T06:07:58;0.00;;;0.00;;
70410;SDS011;57832;46.038;11.398;2023-04-15T06:10:24;0.10;;;0.10;;
70410;SDS011;57832;46.038;11.398;2023-04-15T06:12:51;0.00;;;0.00;;
70410;SDS011;57832;46.038;11.398;2023-04-15T06:15:17;0.00;;;0.00;;
70410;SDS011;57832;46.038;11.398;2023-04-15T06:17:42;0.00;;;0.00;;
70410;SDS011;57832;46.038;11.398;2023-04-15T06:20:08;0.00;;;0.00;;
70410;SDS011;57832;46.038;11.398;2023-04-15T06:22:35;0.00;;;0.00;;
70410;SDS011;57832;46.038;11.398;2023-04-15T06:25:02;0.00;;;0.00;;
70410;SDS011;57832;46.038;11.398;2023-04-15T06:27:27;0.00;;;0.00;;
70410;SDS011;57832;46.038;11.398;2023-04-15T06:29:53;0.00;;;0.00;;
70410;SDS011;57832;46.038;11.398;2023-04-15T06:32:18;0.00;;;0.00;;
70410;SDS011;57832;46.038;11.398;2023-04-15T06:34:44;0.00;;;0.00;;
70410;SDS011;57832;46.038;11.398;2023-04-15T06:37:09;0.10;;;0.10;;
70410;SDS011;57832;46.038;11.398;2023-04-15T06:39:39;0.00;;;0.00;;
70410;SDS011;57832;46.038;11.398;2023-04-15T06:42:05;0.10;;;0.10;;
70410;SDS011;57832;46.038;11.398;2023-04-15T06:44:30;0.00;;;0.00;;
70410;SDS011;57832;46.038;11.398;2023-04-15T06:46:56;0.10;;;0.10;;
70410;SDS011;57832;46.038;11.398;2023-04-15T06:49:21;0.10;;;0.10;;
70410;SDS011;57832;46.038;11.398;2023-04-15T06:51:47;0.00;;;0.00;;
70410;SDS011;57832;46.038;11.398;2023-04-15T06:54:12;0.00;;;0.00;;
70410;SDS011;57832;46.038;11.398;2023-04-15T06:56:38;0.10;;;0.10;;
70410;SDS011;57832;46.038;11.398;2023-04-15T06:59:03;0.00;;;0.00;;
70410;SDS011;57832;46.038;11.398;2023-04-15T07:01:29;0.00;;;0.00;;
70410;SDS011;57832;46.038;11.398;2023-04-15T07:03:55;0.00;;;0.00;;
70410;SDS011;57832;46.038;11.398;2023-04-15T07:06:21;0.00;;;0.00;;
70410;SDS011;57832;46.038;11.398;2023-04-15T07:08:46;0.00;;;0.00;;
70410;SDS011;57832;46.038;11.398;2023-04-15T07:11:12;0.00;;;0.00;;
70410;SDS011;57832;46.038;11.398;2023-04-15T07:16:03;0.00;;;0.00;;
70410;SDS011;57832;46.038;11.398;2023-04-15T07:18:29;0.00;;;0.00;;
70410;SDS011;57832;46.038;11.398;2023-04-15T07:20:54;0.00;;;0.00;;
70410;SDS011;57832;46.038;11.398;2023-04-15T07:23:20;0.00;;;0.00;;
70410;SDS011;57832;46.038;11.398;2023-04-15T07:25:46;0.00;;;0.00;;
70410;SDS011;57832;46.038;11.398;2023-04-15T07:28:12;0.00;;;0.00;;
70410;SDS011;57832;46.038;11.398;2023-04-15T07:30:37;0.00;;;0.00;;
70410;SDS011;57832;46.038;11.398;2023-04-15T07:33:03;0.00;;;0.00;;
70410;SDS011;57832;46.038;11.398;2023-04-15T07:35:29;0.00;;;0.00;;
70410;SDS011;57832;46.038;11.398;2023-04-15T07:37:54;0.00;;;0.00;;
70410;SDS011;57832;46.038;11.398;2023-04-15T07:40:20;0.00;;;0.00;;
70410;SDS011;57832;46.038;11.398;2023-04-15T07:42:46;0.00;;;0.00;;
70410;SDS011;57832;46.038;11.398;2023-04-15T07:45:13;0.00;;;0.00;;
70410;SDS011;57832;46.038;11.398;2023-04-15T07:47:39;0.00;;;0.00;;
70410;SDS011;57832;46.038;11.398;2023-04-15T07:52:31;0.00;;;0.00;;
70410;SDS011;57832;46.038;11.398;2023-04-15T07:55:03;0.00;;;0.00;;
70410;SDS011;57832;46.038;11.398;2023-04-15T07:57:35;0.00;;;0.00;;
70410;SDS011;57832;46.038;11.398;2023-04-15T08:00:01;0.00;;;0.00;;
70410;SDS011;57832;46.038;11.398;2023-04-15T08:02:29;0.00;;;0.00;;
70410;SDS011;57832;46.038;11.398;2023-04-15T08:04:55;0.00;;;0.00;;
70410;SDS011;57832;46.038;11.398;2023-04-15T08:07:21;0.00;;;0.00;;
70410;SDS011;57832;46.038;11.398;2023-04-15T08:09:47;0.00;;;0.00;;
70410;SDS011;57832;46.038;11.398;2023-04-15T08:12:13;0.00;;;0.00;;
70410;SDS011;57832;46.038;11.398;2023-04-15T08:14:39;0.00;;;0.00;;
70410;SDS011;57832;46.038;11.398;2023-04-15T08:17:04;0.00;;;0.00;;
70410;SDS011;57832;46.038;11.398;2023-04-15T08:19:31;0.00;;;0.00;;
70410;SDS011;57832;46.038;11.398;2023-04-15T08:21:56;0.00;;;0.00;;
70410;SDS011;57832;46.038;11.398;2023-04-15T08:24:23;0.00;;;0.00;;
70410;SDS011;57832;46.038;11.398;2023-04-15T08:26:50;0.00;;;0.00;;
70410;SDS011;57832;46.038;11.398;2023-04-15T08:29:16;0.00;;;0.00;;
70410;SDS011;57832;46.038;11.398;2023-04-15T08:31:41;0.00;;;0.00;;
70410;SDS011;57832;46.038;11.398;2023-04-15T08:34:07;0.00;;;0.00;;
70410;SDS011;57832;46.038;11.398;2023-04-15T08:36:33;0.00;;;0.00;;
70410;SDS011;57832;46.038;11.398;2023-04-15T08:38:59;0.00;;;0.00;;
70410;SDS011;57832;46.038;11.398;2023-04-15T08:41:26;0.08;;;0.08;;
70410;SDS011;57832;46.038;11.398;2023-04-15T08:44:04;0.00;;;0.00;;
70410;SDS011;57832;46.038;11.398;2023-04-15T08:46:30;0.00;;;0.00;;
70410;SDS011;57832;46.038;11.398;2023-04-15T08:48:59;0.00;;;0.00;;
70410;SDS011;57832;46.038;11.398;2023-04-15T08:51:27;0.00;;;0.00;;
70410;SDS011;57832;46.038;11.398;2023-04-15T08:53:53;0.00;;;0.00;;
70410;SDS011;57832;46.038;11.398;2023-04-15T08:58:47;0.00;;;0.00;;
70410;SDS011;57832;46.038;11.398;2023-04-15T09:03:38;0.00;;;0.00;;
70410;SDS011;57832;46.038;11.398;2023-04-15T09:06:04;0.00;;;0.00;;
70410;SDS011;57832;46.038;11.398;2023-04-15T09:08:31;0.00;;;0.00;;
70410;SDS011;57832;46.038;11.398;2023-04-15T09:10:58;0.00;;;0.00;;
70410;SDS011;57832;46.038;11.398;2023-04-15T09:13:24;0.00;;;0.00;;
70410;SDS011;57832;46.038;11.398;2023-04-15T09:15:49;0.00;;;0.00;;
70410;SDS011;57832;46.038;11.398;2023-04-15T09:18:26;0.00;;;0.00;;
70410;SDS011;57832;46.038;11.398;2023-04-15T09:20:55;0.00;;;0.00;;
70410;SDS011;57832;46.038;11.398;2023-04-15T09:23:21;0.00;;;0.00;;
70410;SDS011;57832;46.038;11.398;2023-04-15T09:25:47;0.00;;;0.00;;
70410;SDS011;57832;46.038;11.398;2023-04-15T09:28:13;0.10;;;0.10;;
70410;SDS011;57832;46.038;11.398;2023-04-15T09:30:41;0.10;;;0.10;;
70410;SDS011;57832;46.038;11.398;2023-04-15T09:33:10;0.10;;;0.10;;
70410;SDS011;57832;46.038;11.398;2023-04-15T09:35:38;0.00;;;0.00;;
70410;SDS011;57832;46.038;11.398;2023-04-15T09:38:08;0.10;;;0.10;;
70410;SDS011;57832;46.038;11.398;2023-04-15T09:40:40;0.20;;;0.20;;
70410;SDS011;57832;46.038;11.398;2023-04-15T09:43:07;0.10;;;0.10;;
70410;SDS011;57832;46.038;11.398;2023-04-15T09:45:34;0.10;;;0.10;;
70410;SDS011;57832;46.038;11.398;2023-04-15T09:50:47;0.10;;;0.10;;
70410;SDS011;57832;46.038;11.398;2023-04-15T09:53:17;0.17;;;0.17;;
70410;SDS011;57832;46.038;11.398;2023-04-15T09:55:57;0.20;;;0.20;;
70410;SDS011;57832;46.038;11.398;2023-04-15T09:58:26;0.10;;;0.10;;
70410;SDS011;57832;46.038;11.398;2023-04-15T10:00:52;0.20;;;0.20;;
70410;SDS011;57832;46.038;11.398;2023-04-15T10:03:20;0.20;;;0.20;;
70410;SDS011;57832;46.038;11.398;2023-04-15T10:05:49;0.20;;;0.20;;
70410;SDS011;57832;46.038;11.398;2023-04-15T10:08:17;0.20;;;0.20;;
70410;SDS011;57832;46.038;11.398;2023-04-15T10:10:46;0.20;;;0.20;;
70410;SDS011;57832;46.038;11.398;2023-04-15T10:13:13;0.20;;;0.20;;
70410;SDS011;57832;46.038;11.398;2023-04-15T10:15:42;0.20;;;0.20;;
70410;SDS011;57832;46.038;11.398;2023-04-15T10:18:14;0.20;;;0.20;;
70410;SDS011;57832;46.038;11.398;2023-04-15T10:20:43;0.30;;;0.30;;
70410;SDS011;57832;46.038;11.398;2023-04-15T10:23:11;0.30;;;0.30;;
70410;SDS011;57832;46.038;11.398;2023-04-15T10:25:37;0.25;;;0.25;;
70410;SDS011;57832;46.038;11.398;2023-04-15T10:28:03;0.20;;;0.20;;
70410;SDS011;57832;46.038;11.398;2023-04-15T10:30:31;0.20;;;0.20;;
70410;SDS011;57832;46.038;11.398;2023-04-15T10:32:58;0.30;;;0.30;;
70410;SDS011;57832;46.038;11.398;2023-04-15T10:35:25;0.20;;;0.20;;
70410;SDS011;57832;46.038;11.398;2023-04-15T10:37:53;0.30;;;0.30;;
70410;SDS011;57832;46.038;11.398;2023-04-15T10:40:29;0.38;;;0.38;;
70410;SDS011;57832;46.038;11.398;2023-04-15T10:42:56;0.30;;;0.30;;
70410;SDS011;57832;46.038;11.398;2023-04-15T10:45:35;0.30;;;0.30;;
70410;SDS011;57832;46.038;11.398;2023-04-15T10:48:02;0.40;;;0.40;;
70410;SDS011;57832;46.038;11.398;2023-04-15T10:50:31;0.30;;;0.30;;
70410;SDS011;57832;46.038;11.398;2023-04-15T10:52:58;0.30;;;0.30;;
70410;SDS011;57832;46.038;11.398;2023-04-15T10:55:26;0.50;;;0.50;;
70410;SDS011;57832;46.038;11.398;2023-04-15T10:57:57;0.40;;;0.40;;
70410;SDS011;57832;46.038;11.398;2023-04-15T11:00:28;0.50;;;0.50;;
70410;SDS011;57832;46.038;11.398;2023-04-15T11:02:58;0.50;;;0.50;;
70410;SDS011;57832;46.038;11.398;2023-04-15T11:08:05;0.30;;;0.30;;
70410;SDS011;57832;46.038;11.398;2023-04-15T11:12:58;0.20;;;0.20;;
70410;SDS011;57832;46.038;11.398;2023-04-15T11:15:46;0.30;;;0.30;;
70410;SDS011;57832;46.038;11.398;2023-04-15T11:18:13;0.30;;;0.30;;
70410;SDS011;57832;46.038;11.398;2023-04-15T11:20:50;0.17;;;0.17;;
70410;SDS011;57832;46.038;11.398;2023-04-15T11:23:42;0.17;;;0.17;;
70410;SDS011;57832;46.038;11.398;2023-04-15T11:26:11;0.10;;;0.10;;
70410;SDS011;57832;46.038;11.398;2023-04-15T11:28:38;0.10;;;0.10;;
70410;SDS011;57832;46.038;11.398;2023-04-15T11:31:11;0.10;;;0.10;;
70410;SDS011;57832;46.038;11.398;2023-04-15T11:33:56;0.10;;;0.10;;
70410;SDS011;57832;46.038;11.398;2023-04-15T11:36:27;0.20;;;0.20;;
70410;SDS011;57832;46.038;11.398;2023-04-15T11:38:54;0.20;;;0.20;;
70410;SDS011;57832;46.038;11.398;2023-04-15T11:41:22;0.10;;;0.10;;
70410;SDS011;57832;46.038;11.398;2023-04-15T11:43:47;0.10;;;0.10;;
70410;SDS011;57832;46.038;11.398;2023-04-15T11:46:14;0.10;;;0.10;;
70410;SDS011;57832;46.038;11.398;2023-04-15T11:48:44;0.10;;;0.10;;
70410;SDS011;57832;46.038;11.398;2023-04-15T11:51:11;0.10;;;0.10;;
70410;SDS011;57832;46.038;11.398;2023-04-15T11:53:39;0.10;;;0.10;;
70410;SDS011;57832;46.038;11.398;2023-04-15T11:56:10;0.10;;;0.10;;
70410;SDS011;57832;46.038;11.398;2023-04-15T11:58:42;0.10;;;0.10;;
70410;SDS011;57832;46.038;11.398;2023-04-15T12:01:08;0.10;;;0.10;;
70410;SDS011;57832;46.038;11.398;2023-04-15T12:08:59;0.10;;;0.10;;
70410;SDS011;57832;46.038;11.398;2023-04-15T12:13:52;0.00;;;0.00;;
70410;SDS011;57832;46.038;11.398;2023-04-15T12:16:20;0.00;;;0.00;;
70410;SDS011;57832;46.038;11.398;2023-04-15T12:18:51;0.00;;;0.00;;
70410;SDS011;57832;46.038;11.398;2023-04-15T12:21:20;0.00;;;0.00;;
70410;SDS011;57832;46.038;11.398;2023-04-15T12:23:51;0.00;;;0.00;;
70410;SDS011;57832;46.038;11.398;2023-04-15T12:26:18;0.00;;;0.00;;
70410;SDS011;57832;46.038;11.398;2023-04-15T12:28:54;0.00;;;0.00;;
70410;SDS011;57832;46.038;11.398;2023-04-15T12:31:24;0.00;;;0.00;;
70410;SDS011;57832;46.038;11.398;2023-04-15T12:33:50;0.00;;;0.00;;
70410;SDS011;57832;46.038;11.398;2023-04-15T12:36:16;0.00;;;0.00;;
70410;SDS011;57832;46.038;11.398;2023-04-15T12:38:41;0.00;;;0.00;;
70410;SDS011;57832;46.038;11.398;2023-04-15T12:41:07;0.00;;;0.00;;
70410;SDS011;57832;46.038;11.398;2023-04-15T12:43:33;0.00;;;0.00;;
70410;SDS011;57832;46.038;11.398;2023-04-15T12:45:58;0.00;;;0.00;;
70410;SDS011;57832;46.038;11.398;2023-04-15T12:48:24;0.00;;;0.00;;
70410;SDS011;57832;46.038;11.398;2023-04-15T12:50:49;0.00;;;0.00;;
70410;SDS011;57832;46.038;11.398;2023-04-15T12:53:15;0.00;;;0.00;;
70410;SDS011;57832;46.038;11.398;2023-04-15T12:55:41;0.00;;;0.00;;
70410;SDS011;57832;46.038;11.398;2023-04-15T12:58:07;0.00;;;0.00;;
70410;SDS011;57832;46.038;11.398;2023-04-15T13:00:33;0.00;;;0.00;;
70410;SDS011;57832;46.038;11.398;2023-04-15T13:02:59;0.00;;;0.00;;
70410;SDS011;57832;46.038;11.398;2023-04-15T13:05:24;0.00;;;0.00;;
70410;SDS011;57832;46.038;11.398;2023-04-15T13:07:50;0.00;;;0.00;;
70410;SDS011;57832;46.038;11.398;2023-04-15T13:10:16;0.00;;;0.00;;
70410;SDS011;57832;46.038;11.398;2023-04-15T13:12:41;0.00;;;0.00;;
70410;SDS011;57832;46.038;11.398;2023-04-15T13:15:07;0.00;;;0.00;;
70410;SDS011;57832;46.038;11.398;2023-04-15T13:17:35;0.00;;;0.00;;
70410;SDS011;57832;46.038;11.398;2023-04-15T13:20:00;0.00;;;0.00;;
70410;SDS011;57832;46.038;11.398;2023-04-15T13:22:26;0.00;;;0.00;;
70410;SDS011;57832;46.038;11.398;2023-04-15T13:24:51;0.00;;;0.00;;
70410;SDS011;57832;46.038;11.398;2023-04-15T13:27:17;0.00;;;0.00;;
70410;SDS011;57832;46.038;11.398;2023-04-15T13:29:42;0.00;;;0.00;;
70410;SDS011;57832;46.038;11.398;2023-04-15T13:32:08;0.00;;;0.00;;
70410;SDS011;57832;46.038;11.398;2023-04-15T13:34:34;0.00;;;0.00;;
70410;SDS011;57832;46.038;11.398;2023-04-15T13:37:04;0.00;;;0.00;;
70410;SDS011;57832;46.038;11.398;2023-04-15T13:39:30;0.00;;;0.00;;
70410;SDS011;57832;46.038;11.398;2023-04-15T13:41:56;0.00;;;0.00;;
70410;SDS011;57832;46.038;11.398;2023-04-15T13:44:21;0.00;;;0.00;;
70410;SDS011;57832;46.038;11.398;2023-04-15T13:46:47;0.00;;;0.00;;
70410;SDS011;57832;46.038;11.398;2023-04-15T13:49:12;0.00;;;0.00;;
70410;SDS011;57832;46.038;11.398;2023-04-15T13:51:38;0.00;;;0.00;;
70410;SDS011;57832;46.038;11.398;2023-04-15T13:54:04;0.00;;;0.00;;
70410;SDS011;57832;46.038;11.398;2023-04-15T13:56:30;0.00;;;0.00;;
70410;SDS011;57832;46.038;11.398;2023-04-15T13:58:55;0.00;;;0.00;;
70410;SDS011;57832;46.038;11.398;2023-04-15T14:01:23;0.00;;;0.00;;
70410;SDS011;57832;46.038;11.398;2023-04-15T14:06:15;0.00;;;0.00;;
70410;SDS011;57832;46.038;11.398;2023-04-15T14:08:40;0.00;;;0.00;;
70410;SDS011;57832;46.038;11.398;2023-04-15T14:11:06;0.00;;;0.00;;
70410;SDS011;57832;46.038;11.398;2023-04-15T14:13:31;0.00;;;0.00;;
70410;SDS011;57832;46.038;11.398;2023-04-15T14:15:57;0.00;;;0.00;;
70410;SDS011;57832;46.038;11.398;2023-04-15T14:18:22;0.00;;;0.00;;
70410;SDS011;57832;46.038;11.398;2023-04-15T14:20:48;0.00;;;0.00;;
70410;SDS011;57832;46.038;11.398;2023-04-15T14:23:13;0.00;;;0.00;;
70410;SDS011;57832;46.038;11.398;2023-04-15T14:25:39;0.00;;;0.00;;
70410;SDS011;57832;46.038;11.398;2023-04-15T14:28:05;0.00;;;0.00;;
70410;SDS011;57832;46.038;11.398;2023-04-15T14:30:30;0.00;;;0.00;;
70410;SDS011;57832;46.038;11.398;2023-04-15T14:32:55;0.00;;;0.00;;
70410;SDS011;57832;46.038;11.398;2023-04-15T14:35:21;0.00;;;0.00;;
70410;SDS011;57832;46.038;11.398;2023-04-15T14:37:48;0.00;;;0.00;;
70410;SDS011;57832;46.038;11.398;2023-04-15T14:40:14;0.00;;;0.00;;
70410;SDS011;57832;46.038;11.398;2023-04-15T14:42:39;0.00;;;0.00;;
70410;SDS011;57832;46.038;11.398;2023-04-15T14:45:05;0.00;;;0.00;;
70410;SDS011;57832;46.038;11.398;2023-04-15T14:47:31;0.00;;;0.00;;
70410;SDS011;57832;46.038;11.398;2023-04-15T14:49:56;0.00;;;0.00;;
70410;SDS011;57832;46.038;11.398;2023-04-15T14:52:22;0.00;;;0.00;;
70410;SDS011;57832;46.038;11.398;2023-04-15T14:54:47;0.00;;;0.00;;
70410;SDS011;57832;46.038;11.398;2023-04-15T14:57:13;0.00;;;0.00;;
70410;SDS011;57832;46.038;11.398;2023-04-15T14:59:38;0.00;;;0.00;;